Weather at Komotini Airfield

Public forecast

Using degrees Celsius for public forecast. Weather courtesy of forecast.io.

Closest aviation weather report (METAR) to Komotini Airfield

Closest report is Alexandroupoli Democritus Airport, 32.6 nm (60.4 km) ESE.

2024/07/20 15:20 (retrieved 30 minutes ago)

LGAL 201520Z 24006KT 9999 FEW030 33/20 Q1006

Closest aviation forecast (TAF) to Komotini Airfield

Closest forecast is Kavala Alexander the Great International Airport, 34.0 nm (63.0 km) WSW.

2024/07/20 12:13 (retrieved 4 hours ago)

TAF LGKV 201100Z 2012/2112 23013KT 9999 SCT025 PROB30 TEMPO 2012/2021 5000 SHRA FEW018TCU SCT030 BECMG 2016/2018 VRB03KT